createdAt,value
2018-11-25T00:01:02.676Z,6.37
2018-11-25T00:03:30.062Z,6.31
2018-11-25T00:05:58.348Z,6.17
2018-11-25T00:08:25.734Z,6.16
2018-11-25T00:10:53.139Z,6.29
2018-11-25T00:13:20.556Z,6.41
2018-11-25T00:15:48.035Z,6.54
2018-11-25T00:18:16.378Z,6.62
2018-11-25T00:20:43.777Z,6.63
2018-11-25T00:23:12.010Z,6.65
2018-11-25T00:25:39.412Z,6.80
2018-11-25T00:28:06.839Z,6.89
2018-11-25T00:30:34.411Z,6.95
2018-11-25T00:33:01.802Z,6.99
2018-11-25T00:35:29.234Z,6.97
2018-11-25T00:37:56.650Z,6.93
2018-11-25T00:40:24.063Z,6.94
2018-11-25T00:42:51.463Z,6.87
2018-11-25T00:45:18.914Z,6.87
2018-11-25T00:47:46.289Z,6.91
2018-11-25T00:50:14.616Z,6.98
2018-11-25T00:52:42.016Z,7.04
2018-11-25T00:55:09.411Z,7.08
2018-11-25T00:57:36.814Z,7.08
2018-11-25T01:00:04.514Z,7.02
2018-11-25T01:02:32.097Z,7.14
2018-11-25T01:04:59.497Z,7.05
2018-11-25T01:07:26.951Z,6.95
2018-11-25T01:09:54.404Z,7.11
2018-11-25T01:12:21.815Z,7.14
2018-11-25T01:14:49.216Z,7.07
2018-11-25T01:17:16.638Z,7.12
2018-11-25T01:19:44.028Z,7.18
2018-11-25T01:22:11.632Z,7.18
2018-11-25T01:24:39.042Z,7.10
2018-11-25T01:27:06.502Z,7.21
2018-11-25T01:29:34.026Z,7.24
2018-11-25T01:32:01.402Z,7.11
2018-11-25T01:34:28.838Z,7.05
2018-11-25T01:36:56.270Z,7.24
2018-11-25T01:39:23.750Z,7.12
2018-11-25T01:41:51.141Z,7.09
2018-11-25T01:44:18.546Z,7.24
2018-11-25T01:46:45.945Z,7.34
2018-11-25T01:49:13.425Z,7.38
2018-11-25T01:51:40.854Z,7.39
2018-11-25T01:54:08.305Z,7.43
2018-11-25T01:56:35.738Z,7.46
2018-11-25T01:59:03.117Z,7.41
2018-11-25T02:01:30.536Z,7.44
2018-11-25T02:03:57.918Z,7.48
2018-11-25T02:06:25.327Z,7.46
2018-11-25T02:08:52.729Z,7.45
2018-11-25T02:11:20.141Z,7.47
2018-11-25T02:13:47.542Z,7.38
2018-11-25T02:16:14.935Z,7.34
2018-11-25T02:18:42.345Z,7.38
2018-11-25T02:21:09.804Z,7.41
2018-11-25T02:23:37.213Z,7.35
2018-11-25T02:26:05.489Z,7.36
2018-11-25T02:28:32.899Z,7.48
2018-11-25T02:31:00.340Z,7.52
2018-11-25T02:33:27.811Z,7.57
2018-11-25T02:35:55.261Z,7.60
2018-11-25T02:40:56.498Z,7.56
2018-11-25T02:43:23.909Z,7.52
2018-11-25T02:45:51.366Z,7.49
2018-11-25T02:48:18.774Z,7.43
2018-11-25T02:50:46.230Z,7.38
2018-11-25T02:53:13.650Z,7.39
2018-11-25T02:55:41.053Z,7.40
2018-11-25T02:58:08.451Z,7.34
2018-11-25T03:00:35.863Z,7.34
2018-11-25T03:03:03.256Z,7.38
2018-11-25T03:05:30.661Z,7.44
2018-11-25T03:07:58.044Z,7.47
2018-11-25T03:10:25.449Z,7.53
2018-11-25T03:12:52.862Z,7.54
2018-11-25T03:15:20.272Z,7.59
2018-11-25T03:17:47.693Z,7.63
2018-11-25T03:20:15.148Z,7.72
2018-11-25T03:22:42.674Z,7.72
2018-11-25T03:25:10.099Z,7.76
2018-11-25T03:27:37.591Z,7.77
2018-11-25T03:30:05.822Z,7.80
2018-11-25T03:32:33.272Z,7.83
2018-11-25T03:35:00.662Z,7.92
2018-11-25T03:37:28.087Z,7.94
2018-11-25T03:39:55.510Z,7.95
2018-11-25T03:42:22.910Z,7.94
2018-11-25T03:44:50.322Z,7.93
2018-11-25T03:47:17.726Z,7.93
2018-11-25T03:49:45.122Z,7.94
2018-11-25T03:52:12.531Z,8.00
2018-11-25T03:54:39.962Z,8.01
2018-11-25T03:57:07.372Z,8.03
2018-11-25T03:59:34.773Z,8.04
2018-11-25T04:02:02.222Z,8.07
2018-11-25T04:04:29.704Z,8.08
2018-11-25T04:06:57.101Z,8.04
2018-11-25T04:09:25.251Z,8.00
2018-11-25T04:11:52.851Z,8.10
2018-11-25T04:14:20.412Z,8.08
2018-11-25T04:16:47.810Z,8.09
2018-11-25T04:19:15.201Z,8.07
2018-11-25T04:21:42.645Z,7.99
2018-11-25T04:24:10.049Z,7.83
2018-11-25T04:26:37.468Z,7.73
2018-11-25T04:29:04.905Z,7.70
2018-11-25T04:31:32.305Z,7.71
2018-11-25T04:33:59.710Z,7.77
2018-11-25T04:36:27.764Z,7.82
2018-11-25T04:38:55.160Z,7.81
2018-11-25T04:41:22.582Z,7.83
2018-11-25T04:43:50.003Z,7.85
2018-11-25T04:46:17.433Z,7.83
2018-11-25T04:48:45.479Z,7.77
2018-11-25T04:51:12.894Z,7.89
2018-11-25T04:53:40.337Z,7.99
2018-11-25T04:56:07.764Z,8.10
2018-11-25T04:58:35.168Z,8.11
2018-11-25T05:01:02.668Z,8.07
2018-11-25T05:03:30.107Z,8.05
2018-11-25T05:05:57.505Z,8.04
2018-11-25T05:08:24.920Z,7.98
2018-11-25T05:10:52.462Z,7.98
2018-11-25T05:13:19.866Z,8.00
2018-11-25T05:15:47.566Z,7.94
2018-11-25T05:18:14.971Z,7.97
2018-11-25T05:20:42.386Z,7.90
2018-11-25T05:23:10.000Z,7.91
2018-11-25T05:25:37.421Z,7.92
2018-11-25T05:28:04.884Z,7.87
2018-11-25T05:30:32.303Z,7.86
2018-11-25T05:32:59.701Z,7.83
2018-11-25T05:35:27.106Z,7.81
2018-11-25T05:37:54.511Z,7.86
2018-11-25T05:40:21.924Z,7.98
2018-11-25T05:42:49.365Z,8.05
2018-11-25T05:45:16.788Z,8.09
2018-11-25T05:47:44.191Z,8.13
2018-11-25T05:50:11.587Z,8.11
2018-11-25T05:52:38.980Z,8.06
2018-11-25T05:55:06.389Z,7.84
2018-11-25T05:57:34.601Z,7.84
2018-11-25T06:00:02.026Z,7.85
2018-11-25T06:02:29.441Z,7.94
2018-11-25T06:04:57.419Z,8.02
2018-11-25T06:07:24.827Z,7.99
2018-11-25T06:09:52.246Z,8.10
2018-11-25T06:12:19.633Z,8.07
2018-11-25T06:14:47.154Z,8.06
2018-11-25T06:17:14.550Z,8.03
2018-11-25T06:19:42.071Z,7.94
2018-11-25T06:22:09.475Z,7.84
2018-11-25T06:24:36.970Z,7.79
2018-11-25T06:27:04.378Z,7.84
2018-11-25T06:29:31.777Z,7.89
2018-11-25T06:31:59.177Z,7.90
2018-11-25T06:34:26.576Z,7.91
2018-11-25T06:36:54.079Z,7.92
2018-11-25T06:39:21.471Z,7.88
2018-11-25T06:41:48.875Z,7.88
2018-11-25T06:44:16.333Z,7.80
2018-11-25T06:46:44.482Z,7.75
2018-11-25T06:49:12.006Z,7.75
2018-11-25T06:51:39.436Z,7.75
2018-11-25T06:54:06.836Z,7.76
2018-11-25T06:56:34.245Z,7.83
2018-11-25T06:59:01.647Z,7.91
2018-11-25T07:01:29.066Z,7.92
2018-11-25T07:03:56.467Z,7.87
2018-11-25T07:06:23.868Z,7.88
2018-11-25T07:08:51.272Z,7.80
2018-11-25T07:11:18.662Z,7.87
2018-11-25T07:13:46.091Z,7.83
2018-11-25T07:16:13.854Z,7.81
2018-11-25T07:18:41.312Z,7.84
2018-11-25T07:21:08.721Z,7.91
2018-11-25T07:23:36.220Z,7.92
2018-11-25T07:26:03.682Z,7.91
2018-11-25T07:28:31.093Z,7.92
2018-11-25T07:30:58.513Z,7.97
2018-11-25T07:33:25.926Z,7.99
2018-11-25T07:35:53.330Z,7.98
2018-11-25T07:38:20.737Z,7.99
2018-11-25T07:40:48.139Z,8.08
2018-11-25T07:43:15.557Z,8.13
2018-11-25T07:45:43.057Z,8.10
2018-11-25T07:48:10.451Z,8.16
2018-11-25T07:50:37.862Z,8.13
2018-11-25T07:53:05.274Z,8.15
2018-11-25T07:55:32.687Z,8.22
2018-11-25T07:58:00.094Z,8.29
2018-11-25T08:00:27.521Z,8.35
2018-11-25T08:02:55.406Z,8.41
2018-11-25T08:05:22.875Z,8.46
2018-11-25T08:07:50.309Z,8.53
2018-11-25T08:10:17.743Z,8.53
2018-11-25T08:12:45.314Z,8.54
2018-11-25T08:15:12.710Z,8.57
2018-11-25T08:17:40.114Z,8.65
2018-11-25T08:20:07.518Z,8.73
2018-11-25T08:22:34.926Z,8.71
2018-11-25T08:25:02.327Z,8.60
2018-11-25T08:27:29.718Z,8.56
2018-11-25T08:29:57.112Z,8.49
2018-11-25T08:32:24.857Z,8.53
2018-11-25T08:34:52.248Z,8.63
2018-11-25T08:37:20.003Z,8.65
2018-11-25T08:39:47.427Z,8.72
2018-11-25T08:42:15.491Z,8.78
2018-11-25T08:44:42.906Z,8.79
2018-11-25T08:47:10.313Z,8.68
2018-11-25T08:49:37.717Z,8.55
2018-11-25T08:52:05.158Z,8.49
2018-11-25T08:54:32.553Z,8.59
2018-11-25T08:56:59.969Z,8.54
2018-11-25T08:59:28.242Z,8.48
2018-11-25T09:01:55.638Z,8.62
2018-11-25T09:04:23.081Z,8.90
2018-11-25T09:06:51.034Z,8.98
2018-11-25T09:09:18.446Z,8.92
2018-11-25T09:11:45.863Z,9.15
2018-11-25T09:14:13.264Z,9.48
2018-11-25T09:16:40.673Z,9.65
2018-11-25T09:19:08.129Z,9.87
2018-11-25T09:21:35.558Z,9.68
2018-11-25T09:24:03.014Z,9.44
2018-11-25T09:26:30.442Z,9.39
2018-11-25T09:28:57.865Z,9.40
2018-11-25T09:31:25.435Z,9.43
2018-11-25T09:33:53.069Z,9.39
2018-11-25T09:36:20.470Z,9.28
2018-11-25T09:38:47.881Z,9.22
2018-11-25T09:41:15.365Z,9.10
2018-11-25T09:43:42.766Z,9.04
2018-11-25T09:46:10.328Z,8.97
2018-11-25T09:48:37.797Z,9.10
2018-11-25T09:51:05.189Z,9.21
2018-11-25T09:53:32.597Z,9.25
2018-11-25T09:55:59.994Z,9.03
2018-11-25T09:58:27.406Z,8.92
2018-11-25T10:00:54.884Z,9.05
2018-11-25T10:03:22.309Z,9.40
2018-11-25T10:05:49.702Z,9.50
2018-11-25T10:08:17.100Z,9.24
2018-11-25T10:10:44.502Z,9.12
2018-11-25T10:13:11.933Z,9.15
2018-11-25T10:15:39.419Z,9.36
2018-11-25T10:18:06.820Z,9.50
2018-11-25T10:20:34.243Z,9.73
2018-11-25T10:23:01.648Z,9.79
2018-11-25T10:25:29.048Z,9.63
2018-11-25T10:27:56.451Z,9.64
2018-11-25T10:30:23.859Z,9.64
2018-11-25T10:32:51.251Z,9.56
2018-11-25T10:35:18.713Z,9.42
2018-11-25T10:37:46.133Z,9.33
2018-11-25T10:40:13.552Z,9.30
2018-11-25T10:42:40.969Z,9.26
2018-11-25T10:45:08.478Z,8.99
2018-11-25T10:47:35.891Z,9.15
2018-11-25T10:50:03.388Z,9.34
2018-11-25T10:52:30.800Z,9.62
2018-11-25T10:54:58.256Z,9.89
2018-11-25T10:57:25.879Z,10.03
2018-11-25T10:59:53.444Z,9.98
2018-11-25T11:02:21.011Z,10.25
2018-11-25T11:04:48.446Z,10.23
2018-11-25T11:07:26.691Z,10.31
2018-11-25T11:09:54.115Z,10.36
2018-11-25T11:12:21.522Z,10.33
2018-11-25T11:14:48.927Z,10.21
2018-11-25T11:17:16.328Z,10.10
2018-11-25T11:19:43.758Z,10.13
2018-11-25T11:22:11.181Z,10.15
2018-11-25T11:24:38.584Z,9.94
2018-11-25T11:27:05.999Z,10.04
2018-11-25T11:29:33.997Z,10.03
2018-11-25T11:32:01.493Z,10.13
2018-11-25T11:34:29.010Z,10.22
2018-11-25T11:36:56.467Z,10.22
2018-11-25T11:39:23.903Z,10.18
2018-11-25T11:41:51.521Z,10.05
2018-11-25T11:44:18.949Z,10.04
2018-11-25T11:46:46.363Z,10.09
2018-11-25T11:49:13.808Z,10.18
2018-11-25T11:51:41.217Z,10.23
2018-11-25T11:54:08.649Z,10.20
2018-11-25T11:56:40.244Z,10.13
2018-11-25T11:59:03.486Z,10.00
2018-11-25T12:01:30.940Z,9.96
2018-11-25T12:03:58.359Z,10.09
2018-11-25T12:06:25.778Z,10.33
2018-11-25T12:08:53.280Z,10.50
2018-11-25T12:11:20.737Z,10.49
2018-11-25T12:13:48.173Z,10.52
2018-11-25T12:16:15.628Z,10.29
2018-11-25T12:18:43.143Z,10.50
2018-11-25T12:21:10.543Z,10.79
2018-11-25T12:23:37.958Z,10.97
2018-11-25T12:26:05.375Z,11.02
2018-11-25T12:28:32.827Z,11.05
2018-11-25T12:31:00.322Z,10.99
2018-11-25T12:33:27.726Z,10.79
2018-11-25T12:35:55.180Z,10.70
2018-11-25T12:38:22.606Z,10.68
2018-11-25T12:40:50.498Z,10.56
2018-11-25T12:43:17.909Z,10.48
2018-11-25T12:45:45.322Z,10.43
2018-11-25T12:48:13.691Z,10.36
2018-11-25T12:50:41.317Z,10.62
2018-11-25T12:53:08.719Z,10.81
2018-11-25T12:55:36.180Z,10.88
2018-11-25T12:58:04.773Z,10.97
2018-11-25T13:00:32.174Z,11.06
2018-11-25T13:02:59.621Z,11.02
2018-11-25T13:05:28.129Z,10.93
2018-11-25T13:07:55.582Z,10.86
2018-11-25T13:10:22.966Z,10.78
2018-11-25T13:12:50.435Z,10.54
2018-11-25T13:15:17.849Z,10.65
2018-11-25T13:17:45.325Z,10.58
2018-11-25T13:20:13.482Z,10.56
2018-11-25T13:22:41.074Z,10.40
2018-11-25T13:25:08.553Z,10.34
2018-11-25T13:27:36.346Z,10.34
2018-11-25T13:30:03.742Z,10.27
2018-11-25T13:32:31.197Z,10.22
2018-11-25T13:34:58.682Z,10.18
2018-11-25T13:37:26.093Z,10.22
2018-11-25T13:39:53.542Z,10.17
2018-11-25T13:42:20.945Z,10.10
2018-11-25T13:44:48.042Z,10.05
2018-11-25T13:47:15.428Z,10.09
2018-11-25T13:49:42.870Z,10.12
2018-11-25T13:52:10.323Z,10.20
2018-11-25T13:54:37.771Z,10.22
2018-11-25T13:57:05.217Z,10.06
2018-11-25T13:59:32.606Z,9.96
2018-11-25T14:02:00.041Z,9.89
2018-11-25T14:04:27.457Z,9.91
2018-11-25T14:06:54.878Z,9.85
2018-11-25T14:09:22.300Z,9.79
2018-11-25T14:11:49.712Z,9.81
2018-11-25T14:14:17.320Z,9.86
2018-11-25T14:16:44.821Z,9.83
2018-11-25T14:19:12.229Z,9.85
2018-11-25T14:21:39.640Z,9.87
2018-11-25T14:24:07.057Z,9.79
2018-11-25T14:26:34.496Z,9.70
2018-11-25T14:29:01.954Z,9.60
2018-11-25T14:31:29.458Z,9.62
2018-11-25T14:33:56.871Z,9.66
2018-11-25T14:36:24.277Z,9.49
2018-11-25T14:38:51.683Z,9.34
2018-11-25T14:41:19.078Z,9.38
2018-11-25T14:43:46.508Z,9.43
2018-11-25T14:46:14.688Z,9.49
2018-11-25T14:48:42.081Z,9.51
2018-11-25T14:51:09.565Z,9.52
2018-11-25T14:53:36.969Z,9.55
2018-11-25T14:56:04.424Z,9.63
2018-11-25T14:58:31.946Z,9.69
2018-11-25T15:00:59.357Z,9.73
2018-11-25T15:03:26.885Z,9.78
2018-11-25T15:05:55.562Z,9.79
2018-11-25T15:08:22.971Z,9.77
2018-11-25T15:10:51.131Z,9.72
2018-11-25T15:13:18.546Z,9.65
2018-11-25T15:15:46.251Z,9.59
2018-11-25T15:18:13.831Z,9.62
2018-11-25T15:20:41.336Z,9.65
2018-11-25T15:23:08.724Z,9.69
2018-11-25T15:25:36.147Z,9.78
2018-11-25T15:28:03.571Z,9.82
2018-11-25T15:30:31.052Z,9.83
2018-11-25T15:32:59.515Z,9.77
2018-11-25T15:35:26.981Z,9.74
2018-11-25T15:37:54.460Z,9.68
2018-11-25T15:40:22.361Z,9.64
2018-11-25T15:42:49.951Z,9.66
2018-11-25T15:45:17.360Z,9.70
2018-11-25T15:47:44.853Z,9.69
2018-11-25T15:50:12.273Z,9.66
2018-11-25T15:52:39.675Z,9.67
2018-11-25T15:55:07.289Z,9.67
2018-11-25T15:57:34.770Z,9.65
2018-11-25T16:00:02.325Z,9.61
2018-11-25T16:02:29.851Z,9.58
2018-11-25T16:04:57.651Z,9.58
2018-11-25T16:07:25.177Z,9.49
2018-11-25T16:09:52.614Z,9.42
2018-11-25T16:12:20.043Z,9.43
2018-11-25T16:14:47.499Z,9.38
2018-11-25T16:17:14.944Z,9.38
2018-11-25T16:19:42.348Z,9.31
2018-11-25T16:22:09.933Z,9.32
2018-11-25T16:24:39.152Z,9.22
2018-11-25T16:27:06.581Z,9.12
2018-11-25T16:29:34.049Z,9.12
2018-11-25T16:32:01.568Z,9.08
2018-11-25T16:34:28.967Z,9.09
2018-11-25T16:36:56.510Z,9.10
2018-11-25T16:39:23.919Z,9.14
2018-11-25T16:41:51.518Z,9.15
2018-11-25T16:44:18.916Z,9.15
2018-11-25T16:46:46.452Z,9.15
2018-11-25T16:49:13.871Z,9.12
2018-11-25T16:51:41.430Z,9.14
2018-11-25T16:54:08.810Z,9.12
2018-11-25T16:56:36.261Z,9.04
2018-11-25T16:59:03.659Z,9.02
2018-11-25T17:01:31.202Z,9.00
2018-11-25T17:03:59.298Z,9.02
2018-11-25T17:06:26.721Z,8.99
2018-11-25T17:08:54.168Z,8.97
2018-11-25T17:11:21.650Z,8.98
2018-11-25T17:13:49.320Z,9.03
2018-11-25T17:16:16.751Z,9.05
2018-11-25T17:18:44.281Z,9.11
2018-11-25T17:21:11.808Z,9.13
2018-11-25T17:23:39.239Z,9.13
2018-11-25T17:26:06.681Z,9.14
2018-11-25T17:28:34.130Z,9.20
2018-11-25T17:31:01.514Z,9.19
2018-11-25T17:33:28.938Z,9.18
2018-11-25T17:35:56.420Z,9.23
2018-11-25T17:38:24.962Z,9.26
2018-11-25T17:40:51.636Z,9.28
2018-11-25T17:43:19.064Z,9.30
2018-11-25T17:45:46.549Z,9.36
2018-11-25T17:48:14.013Z,9.38
2018-11-25T17:50:41.428Z,9.38
2018-11-25T17:53:08.918Z,9.37
2018-11-25T17:55:37.655Z,9.36
2018-11-25T17:58:05.371Z,9.36
2018-11-25T18:00:32.759Z,9.31
2018-11-25T18:03:00.182Z,9.33
2018-11-25T18:05:27.596Z,9.24
2018-11-25T18:07:56.158Z,9.20
2018-11-25T18:10:23.591Z,9.11
2018-11-25T18:12:50.999Z,9.06
2018-11-25T18:15:19.040Z,9.01
2018-11-25T18:17:47.498Z,8.99
2018-11-25T18:20:14.977Z,8.86
2018-11-25T18:22:42.407Z,8.88
2018-11-25T18:25:09.815Z,8.83
2018-11-25T18:27:37.227Z,8.78
2018-11-25T18:30:05.569Z,8.81
2018-11-25T18:32:33.206Z,8.83
2018-11-25T18:35:00.915Z,8.88
2018-11-25T18:37:28.424Z,8.95
2018-11-25T18:39:55.838Z,8.93
2018-11-25T18:42:23.291Z,9.02
2018-11-25T18:44:51.136Z,9.00
2018-11-25T18:47:18.634Z,8.95
2018-11-25T18:49:46.092Z,8.93
2018-11-25T18:52:13.958Z,8.95
2018-11-25T18:54:41.344Z,8.98
2018-11-25T18:57:08.874Z,8.99
2018-11-25T18:59:36.273Z,8.93
2018-11-25T19:02:04.830Z,8.81
2018-11-25T19:04:32.242Z,8.77
2018-11-25T19:06:59.935Z,8.80
2018-11-25T19:09:27.439Z,8.89
2018-11-25T19:11:54.914Z,8.80
2018-11-25T19:14:23.010Z,8.74
2018-11-25T19:16:50.425Z,8.68
2018-11-25T19:19:17.812Z,8.77
2018-11-25T19:21:45.314Z,8.81
2018-11-25T19:24:12.720Z,8.81
2018-11-25T19:26:40.803Z,8.70
2018-11-25T19:29:08.310Z,8.71
2018-11-25T19:31:35.714Z,8.84
2018-11-25T19:34:03.988Z,8.96
2018-11-25T19:36:31.460Z,9.04
2018-11-25T19:38:58.879Z,8.99
2018-11-25T19:41:26.299Z,8.95
2018-11-25T19:43:53.997Z,8.90
2018-11-25T19:46:21.484Z,8.88
2018-11-25T19:48:48.921Z,8.78
2018-11-25T19:51:17.702Z,8.72
2018-11-25T19:53:43.787Z,8.65
2018-11-25T19:56:11.195Z,8.68
2018-11-25T19:58:38.654Z,8.70
2018-11-25T20:01:06.057Z,8.75
2018-11-25T20:03:33.578Z,8.72
2018-11-25T20:06:01.066Z,8.68
2018-11-25T20:08:28.673Z,8.66
2018-11-25T20:10:56.258Z,8.67
2018-11-25T20:13:23.677Z,8.75
2018-11-25T20:15:51.089Z,8.81
2018-11-25T20:18:18.512Z,8.84
2018-11-25T20:20:46.014Z,8.81
2018-11-25T20:23:13.420Z,8.82
2018-11-25T20:25:40.867Z,8.81
2018-11-25T20:28:08.265Z,8.79
2018-11-25T20:30:35.703Z,8.78
2018-11-25T20:33:08.691Z,8.79
2018-11-25T20:35:36.098Z,8.72
2018-11-25T20:38:03.503Z,8.68
2018-11-25T20:40:30.985Z,8.60
2018-11-25T20:42:58.378Z,8.61
2018-11-25T20:45:25.825Z,8.63
2018-11-25T20:47:53.222Z,8.63
2018-11-25T20:50:20.625Z,8.60
2018-11-25T20:55:42.271Z,8.98
2018-11-25T20:58:09.676Z,8.88
2018-11-25T21:00:37.179Z,8.80
2018-11-25T21:03:04.654Z,8.73
2018-11-25T21:05:32.105Z,8.79
2018-11-25T21:08:00.344Z,8.78
2018-11-25T21:10:27.816Z,8.65
2018-11-25T21:12:55.218Z,8.62
2018-11-25T21:15:22.624Z,8.46
2018-11-25T21:17:50.087Z,8.36
2018-11-25T21:20:17.659Z,8.24
2018-11-25T21:22:45.167Z,8.26
2018-11-25T21:25:12.769Z,8.37
2018-11-25T21:27:40.254Z,8.47
2018-11-25T21:30:07.837Z,8.55
2018-11-25T21:32:35.342Z,8.56
2018-11-25T21:35:02.798Z,8.54
2018-11-25T21:37:30.268Z,8.55
2018-11-25T21:39:57.714Z,8.57
2018-11-25T21:42:25.155Z,8.61
2018-11-25T21:44:52.623Z,8.60
2018-11-25T21:47:20.059Z,8.56
2018-11-25T21:49:47.658Z,8.57
2018-11-25T21:52:16.581Z,8.59
2018-11-25T21:54:44.370Z,8.62
2018-11-25T21:57:11.954Z,8.71
2018-11-25T21:59:39.367Z,8.70
2018-11-25T22:02:06.773Z,8.72
2018-11-25T22:04:34.241Z,8.70
2018-11-25T22:07:01.660Z,8.65
2018-11-25T22:09:30.064Z,8.61
2018-11-25T22:11:57.503Z,8.59
2018-11-25T22:14:24.975Z,8.55
2018-11-25T22:16:52.398Z,8.51
2018-11-25T22:19:19.779Z,8.37
2018-11-25T22:21:47.255Z,8.34
2018-11-25T22:24:14.706Z,8.33
2018-11-25T22:26:42.337Z,8.35
2018-11-25T22:29:09.761Z,8.36
2018-11-25T22:31:37.247Z,8.10
2018-11-25T22:34:04.693Z,7.90
2018-11-25T22:36:32.074Z,7.89
2018-11-25T22:38:59.713Z,7.92
2018-11-25T22:41:27.170Z,7.99
2018-11-25T22:43:54.564Z,8.04
2018-11-25T22:46:21.968Z,8.10
2018-11-25T22:48:49.408Z,8.12
2018-11-25T22:51:16.815Z,8.15
2018-11-25T22:53:44.230Z,8.12
2018-11-25T22:56:11.939Z,8.12
2018-11-25T22:58:39.411Z,8.15
2018-11-25T23:01:06.826Z,8.12
2018-11-25T23:03:34.230Z,8.10
2018-11-25T23:09:17.748Z,8.44
2018-11-25T23:11:45.207Z,8.39
2018-11-25T23:14:12.676Z,8.33
2018-11-25T23:16:40.093Z,8.33
2018-11-25T23:19:07.610Z,8.33
2018-11-25T23:21:35.037Z,8.33
2018-11-25T23:24:03.594Z,8.34
2018-11-25T23:26:29.961Z,8.38
2018-11-25T23:28:57.478Z,8.41
2018-11-25T23:31:24.998Z,8.44
2018-11-25T23:33:52.788Z,8.42
2018-11-25T23:36:20.204Z,8.33
2018-11-25T23:38:47.671Z,8.23
2018-11-25T23:41:15.126Z,8.18
2018-11-25T23:43:42.536Z,8.05
2018-11-25T23:46:09.940Z,7.90
2018-11-25T23:48:37.374Z,7.86
2018-11-25T23:51:04.789Z,7.81
2018-11-25T23:53:32.219Z,7.68
2018-11-25T23:55:59.612Z,7.69
2018-11-25T23:58:27.013Z,7.65
